Time;durP1;ratioP1;P1;durP2;ratioP2;P2;SDS_P1;SDS_P2;PMS_P1;PMS_P2;Temp;Humidity;BMP_temperature;BMP_pressure;BME280_temperature;BME280_humidity;BME280_pressure;Samples;Min_cycle;Max_cycle;Signal;HPM_P1;HPM_P2
2022/03/19 00:01:53;;;;;;;17.95;11.45;;;;;;;7.38;70.04;104300.50;4989941;28;20034;-71
2022/03/19 00:04:20;;;;;;;19.90;12.98;;;;;;;7.36;70.20;104304.88;4989446;28;20416;-71
2022/03/19 00:06:47;;;;;;;17.77;11.50;;;;;;;7.33;69.87;104304.03;4990217;28;20217;-71
2022/03/19 00:09:13;;;;;;;18.38;11.15;;;;;;;7.30;70.80;104304.91;4990197;28;20038;-71
2022/03/19 00:11:40;;;;;;;17.05;11.45;;;;;;;7.27;70.79;104302.31;4989803;28;20030;-71
2022/03/19 00:14:06;;;;;;;18.30;11.05;;;;;;;7.26;70.77;104308.44;4987189;28;20045;-70
2022/03/19 00:16:31;;;;;;;15.55;11.10;;;;;;;7.23;71.03;104297.97;4974280;28;20019;-71
2022/03/19 00:18:57;;;;;;;16.63;11.02;;;;;;;7.22;70.55;104306.72;4989567;28;20092;-71
2022/03/19 00:21:22;;;;;;;16.70;11.05;;;;;;;7.20;71.14;104304.09;4990021;28;20116;-70
2022/03/19 00:23:47;;;;;;;15.43;11.23;;;;;;;7.17;71.34;104297.97;4972914;28;20471;-71
2022/03/19 00:26:14;;;;;;;19.70;10.65;;;;;;;7.15;71.01;104294.47;4989148;28;20430;-71
2022/03/19 00:28:40;;;;;;;17.73;10.40;;;;;;;7.12;71.09;104299.75;4990244;28;20027;-71
2022/03/19 00:31:06;;;;;;;16.85;10.70;;;;;;;7.10;70.99;104294.50;4989726;28;20077;-71
2022/03/19 00:33:32;;;;;;;19.00;10.10;;;;;;;7.08;71.20;104291.03;4988954;28;20037;-71
2022/03/19 00:35:57;;;;;;;19.42;11.38;;;;;;;7.05;71.65;104290.16;4988983;28;20030;-71
2022/03/19 00:38:23;;;;;;;15.68;11.10;;;;;;;7.04;71.60;104291.06;4991918;28;20021;-71
2022/03/19 00:40:49;;;;;;;20.15;11.63;;;;;;;7.04;71.86;104291.06;4989444;28;20031;-71
2022/03/19 00:43:15;;;;;;;19.92;11.93;;;;;;;7.01;71.56;104291.06;4987647;28;20105;-70
2022/03/19 00:45:41;;;;;;;19.85;12.95;;;;;;;6.98;71.90;104291.94;4974516;28;20117;-71
2022/03/19 00:48:06;;;;;;;19.13;12.00;;;;;;;6.97;71.78;104290.22;4968315;28;20116;-71
2022/03/19 00:50:31;;;;;;;21.83;12.80;;;;;;;6.95;71.98;104291.09;4973187;28;20121;-70
2022/03/19 00:52:57;;;;;;;18.05;12.25;;;;;;;6.91;71.99;104296.34;4987937;28;20690;-71
2022/03/19 00:55:22;;;;;;;20.48;12.95;;;;;;;6.89;72.16;104292.84;4988832;28;20072;-71
2022/03/19 00:57:48;;;;;;;19.70;12.95;;;;;;;6.87;72.55;104293.75;4989133;28;20067;-71
2022/03/19 01:00:15;;;;;;;14.23;11.43;;;;;;;6.83;72.27;104287.66;4988063;28;20113;-71
2022/03/19 01:02:43;;;;;;;19.25;11.38;;;;;;;6.82;72.46;104287.66;4988992;28;20045;-71
2022/03/19 01:05:09;;;;;;;18.35;11.00;;;;;;;6.79;72.58;104285.88;4987738;28;20022;-71
2022/03/19 01:07:46;;;;;;;18.05;10.95;;;;;;;6.79;72.11;104280.66;4987570;28;20465;-70
2022/03/19 01:10:14;;;;;;;17.75;11.40;;;;;;;6.74;72.81;104287.66;4989338;28;20046;-71
2022/03/19 01:12:40;;;;;;;19.33;11.63;;;;;;;6.72;72.79;104281.53;4989508;28;20439;-70
2022/03/19 01:15:05;;;;;;;19.45;10.85;;;;;;;6.67;73.00;104278.06;4986770;28;20031;-70
2022/03/19 01:17:31;;;;;;;19.10;10.95;;;;;;;6.68;73.09;104279.81;5009450;28;20033;-70
2022/03/19 01:19:59;;;;;;;14.88;11.18;;;;;;;6.67;72.88;104280.69;5009202;28;20033;-70
2022/03/19 01:22:26;;;;;;;14.98;10.82;;;;;;;6.64;73.02;104278.09;5011999;28;20022;-71
2022/03/19 01:24:52;;;;;;;18.25;11.05;;;;;;;6.64;73.26;104275.47;5003173;28;20486;-70
2022/03/19 01:27:17;;;;;;;15.75;10.95;;;;;;;6.61;73.45;104278.09;5012803;28;20033;-71
2022/03/19 01:29:43;;;;;;;14.90;11.63;;;;;;;6.60;73.35;104273.72;5011975;28;20021;-71
2022/03/19 01:32:09;;;;;;;15.80;11.90;;;;;;;6.58;73.49;104271.13;5012129;28;20101;-70
2022/03/19 01:34:34;;;;;;;19.00;12.25;;;;;;;6.57;73.53;104268.50;5012169;28;20026;-70
2022/03/19 01:36:59;;;;;;;22.10;12.95;;;;;;;6.55;73.76;104271.13;5008532;28;20092;-71
2022/03/19 01:39:25;;;;;;;16.63;11.88;;;;;;;6.52;73.70;104268.53;4993329;28;20027;-72
2022/03/19 01:41:50;;;;;;;17.17;12.50;;;;;;;6.50;73.83;104266.78;4992709;28;20034;-71
2022/03/19 01:44:21;;;;;;;15.50;12.55;;;;;;;6.48;74.44;104265.91;4992429;28;20029;-70
2022/03/19 01:47:12;;;;;;;20.90;12.80;;;;;;;6.51;73.76;104268.53;4991857;28;20419;-70
2022/03/19 01:49:38;;;;;;;21.17;13.15;;;;;;;6.44;74.20;104256.34;4992712;28;20154;-70
2022/03/19 01:52:04;;;;;;;16.85;12.65;;;;;;;6.42;74.09;104260.72;4991756;28;20070;-71
2022/03/19 01:54:34;;;;;;;18.63;12.95;;;;;;;6.39;74.39;104258.06;4989931;28;20045;-71
2022/03/19 01:57:01;;;;;;;15.65;13.45;;;;;;;6.37;74.48;104260.69;4991192;28;20022;-71
2022/03/19 01:59:31;;;;;;;22.88;13.60;;;;;;;6.34;74.75;104258.06;4992270;28;20034;-71
2022/03/19 02:01:56;;;;;;;23.15;13.65;;;;;;;6.33;74.86;104252.84;4978451;28;20130;-70
2022/03/19 02:04:22;;;;;;;19.13;14.43;;;;;;;6.31;74.89;104255.47;4970351;28;20114;-71
2022/03/19 02:06:48;;;;;;;18.95;14.65;;;;;;;6.29;75.50;104255.47;4972361;28;20029;-71
2022/03/19 02:09:14;;;;;;;23.25;14.45;;;;;;;6.28;75.56;104251.13;4978383;28;20077;-71
2022/03/19 02:11:40;;;;;;;21.02;15.73;;;;;;;6.25;75.41;104248.50;4990857;28;20371;-70
2022/03/19 02:14:06;;;;;;;23.88;15.60;;;;;;;6.24;75.82;104241.53;4991590;28;20106;-70
2022/03/19 02:16:32;;;;;;;24.77;15.80;;;;;;;6.22;75.75;104243.28;4992232;28;20097;-71
2022/03/19 02:18:58;;;;;;;21.95;14.65;;;;;;;6.20;75.54;104239.81;4989797;28;20109;-71
2022/03/19 02:21:23;;;;;;;24.42;15.80;;;;;;;6.19;75.83;104238.06;4992002;28;20045;-73
2022/03/19 02:26:46;;;;;;;25.73;16.63;;;;;;;6.17;76.37;104231.09;4992239;28;20025;-71
2022/03/19 02:29:12;;;;;;;25.20;16.65;;;;;;;6.14;76.47;104231.09;4992036;28;20449;-71
2022/03/19 02:31:44;;;;;;;25.90;17.40;;;;;;;6.11;76.91;104223.25;4991080;28;20149;-71
2022/03/19 02:34:09;;;;;;;24.10;16.80;;;;;;;6.10;76.99;104222.38;4991797;28;20030;-71
2022/03/19 02:36:36;;;;;;;23.63;16.73;;;;;;;6.09;77.11;104212.81;4992132;28;20053;-70
2022/03/19 02:39:18;;;;;;;24.48;17.10;;;;;;;6.11;76.41;104216.28;4973621;28;20033;-71
2022/03/19 02:41:48;;;;;;;21.98;16.45;;;;;;;6.07;77.67;104214.56;4991930;28;20434;-70
2022/03/19 02:44:16;;;;;;;23.95;16.80;;;;;;;6.05;77.52;104205.84;4990528;28;20889;-71
2022/03/19 02:46:41;;;;;;;25.98;16.83;;;;;;;6.04;77.69;104209.34;4991181;28;20399;-71
2022/03/19 02:49:07;;;;;;;26.30;16.90;;;;;;;6.03;77.44;104206.72;4991634;28;20022;-71
2022/03/19 02:51:34;;;;;;;26.80;17.95;;;;;;;6.03;78.11;104207.59;4991250;28;20038;-71
2022/03/19 02:54:02;;;;;;;22.30;16.80;;;;;;;6.01;77.89;104200.63;4989731;28;20018;-71
2022/03/19 02:56:27;;;;;;;26.38;17.77;;;;;;;6.00;78.17;104194.50;4989262;28;20019;-71
2022/03/19 02:58:52;;;;;;;25.20;17.25;;;;;;;5.97;77.99;104197.09;4990696;28;20034;-70
2022/03/19 03:01:17;;;;;;;24.30;17.20;;;;;;;5.96;78.23;104200.59;4989175;28;20022;-70
2022/03/19 03:03:43;;;;;;;25.73;18.02;;;;;;;5.92;78.42;104194.50;5008622;28;20017;-71
2022/03/19 03:06:08;;;;;;;22.95;17.15;;;;;;;5.92;78.34;104198.84;4990031;28;20029;-71
2022/03/19 03:08:34;;;;;;;22.50;17.05;;;;;;;5.90;78.64;104191.03;4989912;28;20132;-71
2022/03/19 03:10:59;;;;;;;23.75;16.85;;;;;;;5.90;78.66;104200.59;4990509;28;20161;-71
2022/03/19 03:13:24;;;;;;;25.80;17.05;;;;;;;5.88;79.02;104203.19;4989947;28;20037;-71
2022/03/19 03:15:50;;;;;;;26.52;17.02;;;;;;;5.88;78.98;104204.94;4990534;28;20041;-70
2022/03/19 03:18:16;;;;;;;24.70;16.23;;;;;;;5.86;79.10;104204.94;4990349;28;20033;-70
2022/03/19 03:20:41;;;;;;;26.48;17.73;;;;;;;5.87;79.50;104208.41;4989590;28;20034;-70
2022/03/19 03:23:06;;;;;;;24.23;17.17;;;;;;;5.85;79.87;104202.31;4990621;28;20390;-70
2022/03/19 03:25:32;;;;;;;25.95;16.90;;;;;;;5.83;79.52;104209.28;4990708;28;20120;-70
2022/03/19 03:27:57;;;;;;;22.67;17.02;;;;;;;5.83;79.21;104211.91;4988862;28;20077;-70
2022/03/19 03:30:23;;;;;;;25.98;17.02;;;;;;;5.81;79.80;104208.41;4979104;28;20121;-70
2022/03/19 03:32:48;;;;;;;24.65;17.48;;;;;;;5.80;79.62;104204.06;4990559;28;20030;-70
2022/03/19 03:35:14;;;;;;;25.08;16.67;;;;;;;5.80;79.67;104201.44;4989129;28;20136;-70
2022/03/19 03:37:39;;;;;;;27.35;16.90;;;;;;;5.78;80.04;104205.81;4989233;28;20140;-70
2022/03/19 03:40:05;;;;;;;24.20;17.33;;;;;;;5.78;80.03;104205.81;4990577;28;20050;-71
2022/03/19 03:42:31;;;;;;;24.67;17.52;;;;;;;5.75;80.00;104204.06;4989693;28;20415;-71
2022/03/19 03:44:58;;;;;;;28.70;17.38;;;;;;;5.73;80.02;104212.78;4990217;28;20025;-67
2022/03/19 03:47:25;;;;;;;27.75;17.27;;;;;;;5.70;80.44;104197.97;4990246;28;20030;-71
2022/03/19 03:49:53;;;;;;;23.50;16.73;;;;;;;5.71;80.50;104204.06;4989418;28;20154;-71
2022/03/19 03:52:19;;;;;;;25.63;16.80;;;;;;;5.69;80.60;104195.38;4989000;28;20106;-70
2022/03/19 03:54:45;;;;;;;29.33;17.38;;;;;;;5.68;80.69;104199.72;4989414;28;20056;-70
2022/03/19 03:57:10;;;;;;;24.52;16.45;;;;;;;5.68;80.91;104204.06;4976202;28;20035;-70
2022/03/19 03:59:35;;;;;;;22.88;17.23;;;;;;;5.68;80.54;104198.84;4970295;28;20503;-71
2022/03/19 04:02:01;;;;;;;26.48;17.35;;;;;;;5.63;81.36;104196.25;4969561;28;20058;-70
2022/03/19 04:04:26;;;;;;;26.70;17.52;;;;;;;5.61;80.84;104193.63;4969733;28;20545;-71
2022/03/19 04:06:51;;;;;;;26.05;17.27;;;;;;;5.60;80.99;104190.97;4970612;28;20407;-71
2022/03/19 04:09:17;;;;;;;26.52;17.40;;;;;;;5.56;81.24;104190.09;4976314;28;20079;-70
2022/03/19 04:11:42;;;;;;;29.23;17.63;;;;;;;5.57;81.35;104191.84;4973698;28;20034;-70
2022/03/19 04:14:08;;;;;;;26.85;17.33;;;;;;;5.54;80.99;104186.63;4969663;28;20081;-71
2022/03/19 04:16:33;;;;;;;24.10;17.23;;;;;;;5.51;81.29;104186.63;4968503;28;20038;-71
2022/03/19 04:18:58;;;;;;;31.05;17.27;;;;;;;5.51;81.18;104191.84;4975017;28;20029;-70
2022/03/19 04:21:24;;;;;;;27.08;16.92;;;;;;;5.50;81.87;104181.41;4990415;28;20024;-71
2022/03/19 04:23:49;;;;;;;26.83;16.75;;;;;;;5.48;81.83;104189.25;4989110;28;20163;-70
2022/03/19 04:26:14;;;;;;;26.23;16.50;;;;;;;5.47;81.47;104179.66;4989986;28;20049;-70
2022/03/19 04:28:40;;;;;;;23.05;15.65;;;;;;;5.45;81.56;104176.19;4988724;28;20471;-70
2022/03/19 04:31:05;;;;;;;27.27;17.10;;;;;;;5.44;82.36;104186.63;4988938;28;20029;-70
2022/03/19 04:33:31;;;;;;;24.45;15.75;;;;;;;5.42;81.87;104184.00;4990089;28;20374;-71
2022/03/19 04:38:41;;;;;;;26.15;16.60;;;;;;;5.37;81.55;104177.91;4987043;28;20574;-71
2022/03/19 04:41:06;;;;;;;26.77;16.20;;;;;;;5.38;81.96;104184.88;4988289;28;20131;-71
2022/03/19 04:43:31;;;;;;;22.55;16.50;;;;;;;5.35;82.41;104169.22;4984558;28;20070;-71
2022/03/19 04:45:57;;;;;;;28.10;16.40;;;;;;;5.34;82.36;104172.69;5007304;28;20040;-71
2022/03/19 04:48:22;;;;;;;24.27;15.65;;;;;;;5.32;82.16;104174.44;5008898;28;20105;-71
2022/03/19 04:50:48;;;;;;;24.52;16.45;;;;;;;5.30;82.33;104173.56;5008549;28;20356;-70
2022/03/19 04:53:13;;;;;;;24.45;16.38;;;;;;;5.27;81.91;104171.81;4992803;28;20525;-70
2022/03/19 04:55:40;;;;;;;29.75;15.90;;;;;;;5.26;82.73;104175.31;4992961;28;20038;-71
2022/03/19 04:58:06;;;;;;;26.83;16.30;;;;;;;5.23;82.09;104179.66;4992707;28;20033;-71
2022/03/19 05:00:32;;;;;;;24.25;15.52;;;;;;;5.21;82.41;104174.41;4990894;28;20077;-71
2022/03/19 05:02:58;;;;;;;23.13;15.88;;;;;;;5.20;82.61;104171.78;4987915;28;20435;-70
2022/03/19 05:05:24;;;;;;;22.30;15.02;;;;;;;5.17;82.51;104172.66;5006772;28;20092;-71
2022/03/19 05:07:52;;;;;;;26.77;15.90;;;;;;;5.15;82.93;104174.38;5010169;28;20030;-71
2022/03/19 05:13:01;;;;;;;24.80;16.27;;;;;;;5.14;82.27;104179.59;4981873;28;20121;-70
2022/03/19 05:15:26;;;;;;;27.60;15.98;;;;;;;5.10;82.92;104175.25;4973673;28;20464;-71
2022/03/19 05:17:52;;;;;;;27.70;16.05;;;;;;;5.09;82.68;104169.16;4973651;28;20456;-71
2022/03/19 05:20:17;;;;;;;25.33;16.15;;;;;;;5.07;82.71;104175.25;4973036;28;20039;-70
2022/03/19 05:22:42;;;;;;;23.40;16.15;;;;;;;5.06;82.48;104181.31;4973629;28;20467;-71
2022/03/19 05:25:08;;;;;;;25.98;16.45;;;;;;;5.04;82.87;104181.31;4973762;28;20030;-70
2022/03/19 05:27:34;;;;;;;21.20;16.10;;;;;;;5.01;82.82;104178.72;4981838;28;20022;-71
2022/03/19 05:29:59;;;;;;;25.85;16.33;;;;;;;5.00;83.03;104171.75;4993237;28;20549;-70
2022/03/19 05:32:25;;;;;;;23.15;16.33;;;;;;;4.99;83.50;104186.53;4992881;28;20034;-70
2022/03/19 05:34:51;;;;;;;29.55;17.60;;;;;;;4.95;83.89;104179.56;5007548;28;20092;-70
2022/03/19 05:37:17;;;;;;;27.67;16.63;;;;;;;4.95;83.80;104181.31;4992682;28;20061;-70
2022/03/19 05:39:43;;;;;;;27.40;16.63;;;;;;;4.94;83.25;104183.03;4992945;28;20026;-70
2022/03/19 05:42:11;;;;;;;27.30;16.38;;;;;;;4.94;84.22;104179.56;4991561;28;20096;-71
2022/03/19 05:44:37;;;;;;;28.85;16.95;;;;;;;4.92;83.28;104179.56;4992148;28;20427;-71
2022/03/19 05:47:04;;;;;;;25.10;16.85;;;;;;;4.91;84.09;104185.63;4992055;28;20033;-70
2022/03/19 05:49:30;;;;;;;25.48;16.67;;;;;;;4.90;84.29;104186.50;4991343;28;20112;-70
2022/03/19 05:51:56;;;;;;;26.67;16.95;;;;;;;4.89;84.21;104176.94;4991408;28;20105;-71
2022/03/19 05:54:23;;;;;;;26.23;17.05;;;;;;;4.90;84.34;104188.25;4991299;28;20037;-71
2022/03/19 05:56:48;;;;;;;25.50;16.85;;;;;;;4.88;84.13;104175.19;4990469;28;20030;-71
2022/03/19 05:59:14;;;;;;;24.27;16.45;;;;;;;4.86;84.49;104179.53;4989930;28;20026;-71
2022/03/19 06:01:42;;;;;;;22.05;16.48;;;;;;;4.86;84.50;104187.38;4991172;28;20026;-70
2022/03/19 06:04:08;;;;;;;25.42;16.63;;;;;;;4.86;84.08;104189.09;4990409;28;20026;-71
2022/03/19 06:06:33;;;;;;;32.03;17.02;;;;;;;4.87;83.91;104186.50;4990698;28;20507;-71
2022/03/19 06:08:58;;;;;;;27.10;17.02;;;;;;;4.86;84.21;104189.09;4990330;28;20117;-71
2022/03/19 06:11:24;;;;;;;25.42;16.35;;;;;;;4.85;83.79;104193.44;4991192;28;20039;-71
2022/03/19 06:13:49;;;;;;;30.33;17.45;;;;;;;4.85;84.72;104188.22;4990816;28;20053;-71
2022/03/19 06:16:15;;;;;;;25.52;16.63;;;;;;;4.86;84.04;104192.59;4988743;28;20097;-71
2022/03/19 06:18:45;;;;;;;26.73;16.67;;;;;;;4.86;84.67;104197.81;4989170;28;20025;-70
2022/03/19 06:21:11;;;;;;;31.77;17.05;;;;;;;4.87;84.25;104196.94;4990498;28;20052;-69
2022/03/19 06:23:36;;;;;;;30.67;17.33;;;;;;;4.89;84.54;104203.03;4989743;28;20022;-70
2022/03/19 06:26:02;;;;;;;27.45;16.23;;;;;;;4.89;84.21;104195.19;4991472;28;20096;-70
2022/03/19 06:28:27;;;;;;;22.25;16.88;;;;;;;4.90;84.64;104194.34;4991960;28;20022;-70
2022/03/19 06:30:52;;;;;;;27.50;17.17;;;;;;;4.92;84.71;104197.81;4989582;28;20022;-70
2022/03/19 06:33:18;;;;;;;29.67;16.88;;;;;;;4.92;85.05;104197.81;4989870;28;20396;-72
2022/03/19 06:38:29;;;;;;;26.90;17.48;;;;;;;4.95;85.43;104195.22;4989319;28;20061;-70
2022/03/19 06:40:55;;;;;;;28.90;17.75;;;;;;;4.97;85.21;104206.53;4991312;28;20026;-69
2022/03/19 06:43:21;;;;;;;25.52;17.52;;;;;;;4.99;84.77;104201.31;4990521;28;20112;-69
2022/03/19 06:45:46;;;;;;;23.05;17.20;;;;;;;5.01;85.46;104195.25;4990489;28;20029;-70
2022/03/19 06:48:12;;;;;;;24.52;16.98;;;;;;;5.03;85.25;104197.84;4990879;28;20030;-70
2022/03/19 06:50:38;;;;;;;27.35;16.95;;;;;;;5.08;85.44;104200.47;4988754;28;20049;-70
2022/03/19 06:53:04;;;;;;;30.45;17.20;;;;;;;5.10;85.01;104193.50;4989683;28;20038;-70
2022/03/19 06:55:30;;;;;;;26.23;17.23;;;;;;;5.13;84.93;104194.38;4990869;28;20030;-70
2022/03/19 06:57:56;;;;;;;26.88;17.00;;;;;;;5.16;84.85;104201.34;4990155;28;20026;-70
2022/03/19 07:00:22;;;;;;;29.30;16.40;;;;;;;5.20;84.39;104197.88;4989503;28;20462;-70
2022/03/19 07:02:52;;;;;;;29.23;16.73;;;;;;;5.24;85.16;104202.28;4990012;28;20058;-70
2022/03/19 07:05:28;;;;;;;29.00;16.85;;;;;;;5.27;84.95;104197.06;4989260;28;20105;-70
2022/03/19 07:07:55;;;;;;;31.20;17.15;;;;;;;5.31;85.04;104194.44;4988898;28;20026;-70
2022/03/19 07:10:22;;;;;;;27.88;16.83;;;;;;;5.35;84.96;104190.09;4989957;28;20384;-70
2022/03/19 07:12:49;;;;;;;24.17;16.33;;;;;;;5.39;84.66;104197.06;4988746;28;20514;-69
2022/03/19 07:15:20;;;;;;;29.45;16.90;;;;;;;5.44;85.21;104195.31;4989669;28;20761;-70
2022/03/19 07:17:46;;;;;;;26.42;17.15;;;;;;;5.49;84.84;104187.50;4988440;28;20042;-70
2022/03/19 07:20:14;;;;;;;23.92;16.63;;;;;;;5.55;83.87;104192.72;4989071;28;20430;-70
2022/03/19 07:23:05;;;;;;;23.13;16.08;;;;;;;5.61;83.56;104192.75;4989722;28;20072;-70
2022/03/19 07:25:36;;;;;;;29.00;15.82;;;;;;;5.66;84.14;104191.00;4990159;28;20038;-70
2022/03/19 07:28:05;;;;;;;30.58;16.67;;;;;;;5.70;84.11;104192.75;4986942;28;20026;-70
2022/03/19 07:30:31;;;;;;;27.40;15.95;;;;;;;5.77;84.05;104183.16;4988473;28;20042;-70
2022/03/19 07:32:57;;;;;;;27.55;16.38;;;;;;;5.83;84.30;104193.63;4989104;28;20232;-70
2022/03/19 07:35:23;;;;;;;27.10;16.17;;;;;;;5.89;83.38;104189.28;4989581;28;20049;-70
2022/03/19 07:37:48;;;;;;;26.95;15.90;;;;;;;5.94;83.72;104186.66;4990038;28;20058;-70
2022/03/19 07:43:03;;;;;;;26.25;15.88;;;;;;;6.10;82.96;104180.56;4989906;28;20041;-70
2022/03/19 07:45:30;;;;;;;26.48;15.70;;;;;;;6.16;82.98;104177.94;4988546;28;20026;-71
2022/03/19 07:47:56;;;;;;;20.33;15.02;;;;;;;6.23;82.55;104179.66;4986476;28;20390;-71
2022/03/19 07:50:21;;;;;;;29.13;15.70;;;;;;;6.33;82.32;104185.72;4987396;28;20038;-71
2022/03/19 07:52:47;;;;;;;22.85;14.25;;;;;;;6.40;82.40;104182.22;4989674;28;20022;-72
2022/03/19 07:55:13;;;;;;;25.95;14.77;;;;;;;6.47;81.63;104178.72;4986600;28;20106;-71
2022/03/19 07:57:38;;;;;;;25.85;14.45;;;;;;;6.53;81.55;104173.47;4987557;28;20562;-72
2022/03/19 08:00:04;;;;;;;22.50;13.50;;;;;;;6.62;80.98;104176.94;4989198;28;20411;-70
2022/03/19 08:02:29;;;;;;;21.45;14.35;;;;;;;6.70;81.11;104180.38;4988757;28;20060;-70
2022/03/19 08:04:54;;;;;;;24.88;14.55;;;;;;;6.77;80.22;104175.09;4988199;28;20030;-71
2022/03/19 08:07:19;;;;;;;27.80;14.75;;;;;;;6.86;80.03;104182.06;4974937;28;20881;-69
2022/03/19 08:09:45;;;;;;;26.30;14.30;;;;;;;6.94;79.77;104169.81;4989763;28;20634;-69
2022/03/19 08:12:10;;;;;;;22.13;13.25;;;;;;;7.01;79.49;104173.25;4980666;28;20045;-69
2022/03/19 08:14:36;;;;;;;20.45;13.38;;;;;;;7.09;79.40;104171.47;4987809;28;20472;-69
2022/03/19 08:17:02;;;;;;;22.83;12.98;;;;;;;7.16;79.26;104165.28;4987416;28;20034;-69
2022/03/19 08:19:28;;;;;;;23.27;12.77;;;;;;;7.27;79.59;104168.75;4983509;28;20035;-69
2022/03/19 08:21:53;;;;;;;21.92;12.80;;;;;;;7.37;78.75;104165.16;4978254;28;20020;-69
2022/03/19 08:24:23;;;;;;;18.60;12.43;;;;;;;7.47;77.98;104161.59;4984287;28;20027;-69
2022/03/19 08:26:48;;;;;;;19.58;10.98;;;;;;;7.58;76.97;104168.50;4984280;28;20023;-69
2022/03/19 08:29:13;;;;;;;16.33;11.00;;;;;;;7.68;76.71;104164.94;4989432;28;20033;-70
2022/03/19 08:31:39;;;;;;;24.25;12.05;;;;;;;7.77;75.81;104170.09;4988858;28;20023;-70
2022/03/19 08:34:05;;;;;;;19.92;10.82;;;;;;;7.85;75.08;104168.25;4986347;28;20085;-69
2022/03/19 08:36:30;;;;;;;20.05;10.70;;;;;;;7.95;74.99;104169.91;4969162;28;20411;-69
2022/03/19 08:41:39;;;;;;;18.20;10.80;;;;;;;8.15;74.75;104173.22;4969945;28;20042;-70
2022/03/19 08:44:05;;;;;;;23.02;12.95;;;;;;;8.22;74.36;104167.91;4976744;28;20018;-70
2022/03/19 08:46:31;;;;;;;22.77;11.30;;;;;;;8.31;73.57;104165.16;4978867;28;20047;-70
2022/03/19 08:48:56;;;;;;;22.33;10.30;;;;;;;8.38;73.12;104166.88;4988340;28;20084;-72
2022/03/19 08:51:39;;;;;;;20.20;10.18;;;;;;;8.46;73.05;104159.81;4982926;28;20041;-72
2022/03/19 08:54:09;;;;;;;14.30;9.90;;;;;;;8.56;72.70;104164.03;4986105;28;20027;-72
2022/03/19 08:56:36;;;;;;;20.92;10.25;;;;;;;8.61;71.98;104172.72;4987714;28;20403;-70
2022/03/19 08:59:03;;;;;;;16.88;9.80;;;;;;;8.71;71.43;104160.34;4988244;28;20503;-70
2022/03/19 09:01:29;;;;;;;19.52;9.95;;;;;;;8.76;71.04;104158.53;4986222;28;20035;-70
2022/03/19 09:03:54;;;;;;;17.95;9.18;;;;;;;8.86;70.75;104154.03;4970070;28;20019;-70
2022/03/19 09:06:20;;;;;;;18.05;9.57;;;;;;;8.92;69.72;104156.59;4968733;28;20030;-70
2022/03/19 09:08:47;;;;;;;19.15;9.73;;;;;;;9.00;69.83;104159.97;4979669;28;20456;-70
2022/03/19 09:11:12;;;;;;;15.90;8.95;;;;;;;9.09;69.47;104154.56;4989232;28;20077;-70
2022/03/19 09:13:38;;;;;;;18.08;10.05;;;;;;;9.15;69.42;104153.59;4981955;28;20062;-70
2022/03/19 09:16:05;;;;;;;18.88;9.85;;;;;;;9.21;69.01;104145.66;4974091;28;20015;-70
2022/03/19 09:18:31;;;;;;;17.23;9.02;;;;;;;9.28;68.55;104145.53;4970441;28;20121;-70
2022/03/19 09:20:57;;;;;;;19.55;8.98;;;;;;;9.37;68.46;104148.00;4981437;28;20034;-70
2022/03/19 09:23:22;;;;;;;17.35;8.90;;;;;;;9.46;68.83;104143.50;4986998;28;20023;-70
2022/03/19 09:25:47;;;;;;;17.25;9.35;;;;;;;9.56;68.90;104145.06;4988357;28;20076;-69
2022/03/19 09:28:13;;;;;;;19.02;9.18;;;;;;;9.64;67.81;104143.22;4987836;28;20457;-69
2022/03/19 09:30:38;;;;;;;17.15;9.02;;;;;;;9.75;67.92;104143.88;4976378;28;20031;-69
2022/03/19 09:33:03;;;;;;;17.80;9.10;;;;;;;9.80;66.94;104134.13;4981421;28;20033;-70
2022/03/19 09:35:29;;;;;;;18.33;9.75;;;;;;;9.90;66.82;104138.34;4989483;28;20390;-70
2022/03/19 09:37:58;;;;;;;15.18;8.50;;;;;;;9.99;66.15;104134.66;4979691;28;20053;-70
2022/03/19 09:40:23;;;;;;;15.73;8.40;;;;;;;10.03;65.00;104136.38;4970102;28;20027;-70
2022/03/19 09:42:53;;;;;;;17.02;8.45;;;;;;;10.11;65.03;104134.44;4973700;28;20026;-70
2022/03/19 09:45:20;;;;;;;16.55;7.80;;;;;;;10.17;65.11;104125.56;4991554;28;20078;-70
2022/03/19 09:47:46;;;;;;;17.92;7.80;;;;;;;10.24;64.62;104124.56;4980986;28;20740;-70
2022/03/19 09:50:12;;;;;;;15.20;7.35;;;;;;;10.30;64.53;104125.31;4979728;28;20102;-70
2022/03/19 09:52:40;;;;;;;16.23;7.35;;;;;;;10.39;64.29;104108.47;4982569;28;20026;-70
2022/03/19 09:55:07;;;;;;;13.02;7.55;;;;;;;10.46;63.47;104115.34;4990005;28;20085;-70
2022/03/19 09:57:32;;;;;;;13.73;7.13;;;;;;;10.52;63.11;104111.72;5003544;28;20021;-70
2022/03/19 09:59:58;;;;;;;13.75;7.43;;;;;;;10.58;62.64;104101.91;4991705;28;20041;-70
2022/03/19 10:02:23;;;;;;;16.15;6.90;;;;;;;10.65;61.92;104106.13;4990997;28;20042;-70
2022/03/19 10:04:52;;;;;;;16.35;7.18;;;;;;;10.73;61.73;104095.44;4992638;28;20034;-70
2022/03/19 10:10:11;;;;;;;16.48;6.30;;;;;;;10.91;59.58;104084.50;4991381;28;20045;-70
2022/03/19 10:12:37;;;;;;;15.70;6.00;;;;;;;11.00;59.06;104086.03;4992245;28;20026;-70
2022/03/19 10:15:09;;;;;;;15.23;6.30;;;;;;;11.08;58.08;104078.81;4990989;28;20040;-70
2022/03/19 10:17:36;;;;;;;12.05;5.93;;;;;;;11.14;56.47;104077.78;4992148;28;20025;-70
2022/03/19 10:20:10;;;;;;;14.93;5.97;;;;;;;11.21;56.58;104077.63;4974276;28;20119;-70
2022/03/19 10:22:44;;;;;;;15.18;5.75;;;;;;;11.32;56.69;104068.56;4991354;28;20149;-70
2022/03/19 10:25:13;;;;;;;12.35;5.47;;;;;;;11.38;55.68;104066.63;4985107;28;20022;-70
2022/03/19 10:27:40;;;;;;;12.48;5.65;;;;;;;11.47;55.58;104066.41;4987949;28;20026;-70
2022/03/19 10:30:11;;;;;;;14.73;5.95;;;;;;;11.53;54.54;104060.09;4989506;28;20438;-70
2022/03/19 10:32:41;;;;;;;14.68;5.60;;;;;;;11.63;53.92;104053.69;4991576;28;20034;-70
2022/03/19 10:35:29;;;;;;;10.73;5.32;;;;;;;11.72;55.17;104045.53;4990001;28;20026;-70
2022/03/19 10:37:54;;;;;;;16.50;5.18;;;;;;;11.81;52.73;104050.56;4990935;28;20174;-70
2022/03/19 10:40:20;;;;;;;10.25;5.10;;;;;;;11.96;54.21;104041.34;4990168;28;20612;-70
2022/03/19 10:42:46;;;;;;;13.18;4.57;;;;;;;12.09;51.83;104039.25;4991451;28;20407;-70
2022/03/19 10:45:18;;;;;;;14.50;4.88;;;;;;;12.21;50.80;104025.66;4990604;28;20570;-71
2022/03/19 10:47:45;;;;;;;;;;;;;;;12.28;54.41;104024.56;4992190;28;20387;-70
2022/03/19 10:50:18;;;;;;;11.57;4.45;;;;;;;12.38;49.04;104018.09;4985393;28;19995;-71
2022/03/19 10:52:45;;;;;;;8.48;4.15;;;;;;;12.45;46.93;104021.44;4991531;28;20063;-71
2022/03/19 10:55:11;;;;;;;9.07;4.00;;;;;;;12.50;44.18;104017.72;4991514;28;20030;-71
2022/03/19 10:57:36;;;;;;;7.15;3.30;;;;;;;12.60;44.69;104010.38;4991023;28;20022;-71
2022/03/19 11:00:04;;;;;;;7.28;3.60;;;;;;;12.69;43.23;104019.78;4991653;28;20058;-71
2022/03/19 11:02:30;;;;;;;11.40;4.03;;;;;;;12.73;42.79;104016.13;4992150;28;20022;-71
2022/03/19 11:04:58;;;;;;;8.95;3.90;;;;;;;12.89;42.94;104006.78;4991093;28;20776;-71
2022/03/19 11:07:24;;;;;;;7.90;3.80;;;;;;;12.96;43.10;103992.44;4991488;28;20068;-71
2022/03/19 11:09:53;;;;;;;10.38;3.70;;;;;;;13.12;43.47;103998.94;4972134;28;20034;-71
2022/03/19 11:12:21;;;;;;;6.90;3.47;;;;;;;13.23;42.10;104001.25;4972015;28;20109;-70
2022/03/19 11:14:49;;;;;;;6.35;3.53;;;;;;;13.28;40.82;103993.16;4989755;28;20156;-71
2022/03/19 11:17:30;;;;;;;5.93;3.38;;;;;;;13.44;40.67;103989.06;4991284;28;20502;-71
2022/03/19 11:20:12;;;;;;;8.40;3.75;;;;;;;13.53;40.47;103977.28;4990317;28;20026;-71
2022/03/19 11:22:48;;;;;;;7.37;3.47;;;;;;;13.71;41.47;103961.59;4990890;28;20072;-71
2022/03/19 11:25:30;;;;;;;6.70;3.10;;;;;;;13.84;38.77;103963.78;4990600;28;20076;-71
2022/03/19 11:28:06;;;;;;;9.73;3.27;;;;;;;14.00;38.42;103956.97;4990527;28;20029;-71
2022/03/19 11:30:37;;;;;;;7.40;3.50;;;;;;;14.08;38.18;103949.59;4989652;28;20022;-71
2022/03/19 11:33:18;;;;;;;8.35;3.63;;;;;;;14.16;36.85;103952.81;4989731;28;20034;-71
2022/03/19 11:36:01;;;;;;;5.55;3.28;;;;;;;14.28;39.54;103947.03;4990497;28;20030;-71
2022/03/19 11:38:28;;;;;;;5.60;3.05;;;;;;;14.31;35.59;103946.91;4990414;28;20105;-71